sensor_id;sensor_type;location;lat;lon;timestamp;temperature;humidity
26326;DHT22;14032;52.510;7.342;2023-07-08T00:00:26;18.00;99.90
26326;DHT22;14032;52.510;7.342;2023-07-08T00:02:52;18.00;99.90
26326;DHT22;14032;52.510;7.342;2023-07-08T00:05:20;18.00;99.90
26326;DHT22;14032;52.510;7.342;2023-07-08T00:07:47;18.00;99.90
26326;DHT22;14032;52.510;7.342;2023-07-08T00:10:21;18.00;99.90
26326;DHT22;14032;52.510;7.342;2023-07-08T00:12:51;17.90;99.90
26326;DHT22;14032;52.510;7.342;2023-07-08T00:15:18;17.90;99.90
26326;DHT22;14032;52.510;7.342;2023-07-08T00:17:44;17.90;99.90
26326;DHT22;14032;52.510;7.342;2023-07-08T00:20:22;17.90;99.90
26326;DHT22;14032;52.510;7.342;2023-07-08T00:22:48;17.90;99.90
26326;DHT22;14032;52.510;7.342;2023-07-08T00:25:16;17.80;99.90
26326;DHT22;14032;52.510;7.342;2023-07-08T00:27:42;17.80;99.90
26326;DHT22;14032;52.510;7.342;2023-07-08T00:30:28;17.70;99.90
26326;DHT22;14032;52.510;7.342;2023-07-08T00:32:55;17.70;99.90
26326;DHT22;14032;52.510;7.342;2023-07-08T00:35:41;17.70;99.90
26326;DHT22;14032;52.510;7.342;2023-07-08T00:41:08;17.70;99.90
26326;DHT22;14032;52.510;7.342;2023-07-08T00:43:38;17.60;99.90
26326;DHT22;14032;52.510;7.342;2023-07-08T00:54:42;17.50;99.90
26326;DHT22;14032;52.510;7.342;2023-07-08T00:57:07;17.50;99.90
26326;DHT22;14032;52.510;7.342;2023-07-08T00:59:48;17.50;99.90
26326;DHT22;14032;52.510;7.342;2023-07-08T01:02:17;17.50;99.90
26326;DHT22;14032;52.510;7.342;2023-07-08T01:05:01;17.50;99.90
26326;DHT22;14032;52.510;7.342;2023-07-08T01:07:33;17.50;99.90
26326;DHT22;14032;52.510;7.342;2023-07-08T01:10:12;17.40;99.90
26326;DHT22;14032;52.510;7.342;2023-07-08T01:12:45;17.40;99.90
26326;DHT22;14032;52.510;7.342;2023-07-08T01:15:12;17.40;99.90
26326;DHT22;14032;52.510;7.342;2023-07-08T01:17:44;17.40;99.90
26326;DHT22;14032;52.510;7.342;2023-07-08T01:20:11;17.30;99.90
26326;DHT22;14032;52.510;7.342;2023-07-08T01:22:39;17.20;99.90
26326;DHT22;14032;52.510;7.342;2023-07-08T01:25:06;17.20;99.90
26326;DHT22;14032;52.510;7.342;2023-07-08T01:27:40;17.20;99.90
26326;DHT22;14032;52.510;7.342;2023-07-08T01:30:07;17.20;99.90
26326;DHT22;14032;52.510;7.342;2023-07-08T01:32:34;17.10;99.90
26326;DHT22;14032;52.510;7.342;2023-07-08T01:35:02;17.00;99.90
26326;DHT22;14032;52.510;7.342;2023-07-08T01:37:36;17.10;99.90
26326;DHT22;14032;52.510;7.342;2023-07-08T01:42:57;17.10;99.90
26326;DHT22;14032;52.510;7.342;2023-07-08T01:45:25;17.00;99.90
26326;DHT22;14032;52.510;7.342;2023-07-08T01:47:55;17.00;99.90
26326;DHT22;14032;52.510;7.342;2023-07-08T01:50:23;16.90;99.90
26326;DHT22;14032;52.510;7.342;2023-07-08T01:52:53;16.90;99.90
26326;DHT22;14032;52.510;7.342;2023-07-08T01:55:26;16.80;99.90
26326;DHT22;14032;52.510;7.342;2023-07-08T01:57:54;16.80;99.90
26326;DHT22;14032;52.510;7.342;2023-07-08T02:00:21;16.80;99.90
26326;DHT22;14032;52.510;7.342;2023-07-08T02:02:51;16.80;99.90
26326;DHT22;14032;52.510;7.342;2023-07-08T02:05:16;16.70;99.90
26326;DHT22;14032;52.510;7.342;2023-07-08T02:07:42;16.70;99.90
26326;DHT22;14032;52.510;7.342;2023-07-08T02:10:08;16.70;99.90
26326;DHT22;14032;52.510;7.342;2023-07-08T02:12:40;16.70;99.90
26326;DHT22;14032;52.510;7.342;2023-07-08T02:15:07;16.60;99.90
26326;DHT22;14032;52.510;7.342;2023-07-08T02:17:33;16.60;99.90
26326;DHT22;14032;52.510;7.342;2023-07-08T02:19:59;16.60;99.90
26326;DHT22;14032;52.510;7.342;2023-07-08T02:22:24;16.60;99.90
26326;DHT22;14032;52.510;7.342;2023-07-08T02:24:56;16.60;99.90
26326;DHT22;14032;52.510;7.342;2023-07-08T02:27:25;16.50;99.90
26326;DHT22;14032;52.510;7.342;2023-07-08T02:29:50;16.50;99.90
26326;DHT22;14032;52.510;7.342;2023-07-08T02:32:16;16.50;99.90
26326;DHT22;14032;52.510;7.342;2023-07-08T02:34:45;16.50;99.90
26326;DHT22;14032;52.510;7.342;2023-07-08T02:37:11;16.50;99.90
26326;DHT22;14032;52.510;7.342;2023-07-08T02:39:36;16.50;99.90
26326;DHT22;14032;52.510;7.342;2023-07-08T02:42:02;16.50;99.90
26326;DHT22;14032;52.510;7.342;2023-07-08T02:44:33;16.50;99.90
26326;DHT22;14032;52.510;7.342;2023-07-08T02:46:59;16.50;99.90
26326;DHT22;14032;52.510;7.342;2023-07-08T02:49:33;16.40;99.90
26326;DHT22;14032;52.510;7.342;2023-07-08T02:51:59;16.40;99.90
26326;DHT22;14032;52.510;7.342;2023-07-08T02:54:24;16.50;99.90
26326;DHT22;14032;52.510;7.342;2023-07-08T02:56:50;16.50;99.90
26326;DHT22;14032;52.510;7.342;2023-07-08T02:59:15;16.40;99.90
26326;DHT22;14032;52.510;7.342;2023-07-08T03:01:44;16.30;99.90
26326;DHT22;14032;52.510;7.342;2023-07-08T03:04:12;16.30;99.90
26326;DHT22;14032;52.510;7.342;2023-07-08T03:06:45;16.30;99.90
26326;DHT22;14032;52.510;7.342;2023-07-08T03:09:12;16.30;99.90
26326;DHT22;14032;52.510;7.342;2023-07-08T03:11:38;16.20;99.90
26326;DHT22;14032;52.510;7.342;2023-07-08T03:14:13;16.30;99.90
26326;DHT22;14032;52.510;7.342;2023-07-08T03:16:39;16.20;99.90
26326;DHT22;14032;52.510;7.342;2023-07-08T03:19:04;16.20;99.90
26326;DHT22;14032;52.510;7.342;2023-07-08T03:21:34;16.20;99.90
26326;DHT22;14032;52.510;7.342;2023-07-08T03:23:59;16.20;99.90
26326;DHT22;14032;52.510;7.342;2023-07-08T03:26:26;16.20;99.90
26326;DHT22;14032;52.510;7.342;2023-07-08T03:28:54;16.20;99.90
26326;DHT22;14032;52.510;7.342;2023-07-08T03:31:20;16.20;99.90
26326;DHT22;14032;52.510;7.342;2023-07-08T03:33:45;16.20;99.90
26326;DHT22;14032;52.510;7.342;2023-07-08T03:36:14;16.10;99.90
26326;DHT22;14032;52.510;7.342;2023-07-08T03:38:58;16.10;99.90
26326;DHT22;14032;52.510;7.342;2023-07-08T03:41:25;16.10;99.90
26326;DHT22;14032;52.510;7.342;2023-07-08T03:43:54;16.10;99.90
26326;DHT22;14032;52.510;7.342;2023-07-08T03:46:20;16.10;99.90
26326;DHT22;14032;52.510;7.342;2023-07-08T03:48:47;16.10;99.90
26326;DHT22;14032;52.510;7.342;2023-07-08T03:51:20;16.10;99.90
26326;DHT22;14032;52.510;7.342;2023-07-08T03:53:46;16.10;99.90
26326;DHT22;14032;52.510;7.342;2023-07-08T03:56:15;16.10;99.90
26326;DHT22;14032;52.510;7.342;2023-07-08T03:58:40;16.10;99.90
26326;DHT22;14032;52.510;7.342;2023-07-08T04:01:14;16.10;99.90
26326;DHT22;14032;52.510;7.342;2023-07-08T04:03:41;16.00;99.90
26326;DHT22;14032;52.510;7.342;2023-07-08T04:06:10;16.10;99.90
26326;DHT22;14032;52.510;7.342;2023-07-08T04:08:35;16.10;99.90
26326;DHT22;14032;52.510;7.342;2023-07-08T04:11:01;16.10;99.90
26326;DHT22;14032;52.510;7.342;2023-07-08T04:13:27;16.10;99.90
26326;DHT22;14032;52.510;7.342;2023-07-08T04:15:59;16.10;99.90
26326;DHT22;14032;52.510;7.342;2023-07-08T04:18:25;16.10;99.90
26326;DHT22;14032;52.510;7.342;2023-07-08T04:20:51;16.20;99.90
26326;DHT22;14032;52.510;7.342;2023-07-08T04:23:19;16.10;99.90
26326;DHT22;14032;52.510;7.342;2023-07-08T04:25:45;16.10;99.90
26326;DHT22;14032;52.510;7.342;2023-07-08T04:28:14;16.20;99.90
26326;DHT22;14032;52.510;7.342;2023-07-08T04:30:39;16.20;99.90
26326;DHT22;14032;52.510;7.342;2023-07-08T04:33:07;16.30;99.90
26326;DHT22;14032;52.510;7.342;2023-07-08T04:35:36;16.30;99.90
26326;DHT22;14032;52.510;7.342;2023-07-08T04:38:11;16.40;99.90
26326;DHT22;14032;52.510;7.342;2023-07-08T04:40:39;16.40;99.90
26326;DHT22;14032;52.510;7.342;2023-07-08T04:43:06;16.50;99.90
26326;DHT22;14032;52.510;7.342;2023-07-08T04:45:32;16.50;99.90
26326;DHT22;14032;52.510;7.342;2023-07-08T04:48:01;16.50;99.90
26326;DHT22;14032;52.510;7.342;2023-07-08T04:50:34;16.60;99.90
26326;DHT22;14032;52.510;7.342;2023-07-08T04:52:59;16.70;99.90
26326;DHT22;14032;52.510;7.342;2023-07-08T04:55:28;16.70;99.90
26326;DHT22;14032;52.510;7.342;2023-07-08T04:57:54;16.80;99.90
26326;DHT22;14032;52.510;7.342;2023-07-08T05:00:19;16.90;99.90
26326;DHT22;14032;52.510;7.342;2023-07-08T05:02:45;16.90;99.90
26326;DHT22;14032;52.510;7.342;2023-07-08T05:05:11;17.00;99.90
26326;DHT22;14032;52.510;7.342;2023-07-08T05:07:36;17.10;99.90
26326;DHT22;14032;52.510;7.342;2023-07-08T05:10:02;17.10;99.90
26326;DHT22;14032;52.510;7.342;2023-07-08T05:12:28;17.20;99.90
26326;DHT22;14032;52.510;7.342;2023-07-08T05:14:53;17.30;99.90
26326;DHT22;14032;52.510;7.342;2023-07-08T05:17:19;17.50;99.90
26326;DHT22;14032;52.510;7.342;2023-07-08T05:19:45;17.60;99.90
26326;DHT22;14032;52.510;7.342;2023-07-08T05:22:11;17.70;99.90
26326;DHT22;14032;52.510;7.342;2023-07-08T05:24:43;17.80;99.90
26326;DHT22;14032;52.510;7.342;2023-07-08T05:27:09;17.90;99.90
26326;DHT22;14032;52.510;7.342;2023-07-08T05:29:34;18.00;99.90
26326;DHT22;14032;52.510;7.342;2023-07-08T05:32:00;18.10;99.90
26326;DHT22;14032;52.510;7.342;2023-07-08T05:34:26;18.20;99.90
26326;DHT22;14032;52.510;7.342;2023-07-08T05:36:51;18.30;99.90
26326;DHT22;14032;52.510;7.342;2023-07-08T05:39:20;18.50;99.90
26326;DHT22;14032;52.510;7.342;2023-07-08T05:41:46;18.60;99.90
26326;DHT22;14032;52.510;7.342;2023-07-08T05:44:11;18.80;99.90
26326;DHT22;14032;52.510;7.342;2023-07-08T05:46:37;18.90;99.90
26326;DHT22;14032;52.510;7.342;2023-07-08T05:49:05;19.00;99.90
26326;DHT22;14032;52.510;7.342;2023-07-08T05:51:33;19.20;99.90
26326;DHT22;14032;52.510;7.342;2023-07-08T05:53:59;19.30;99.90
26326;DHT22;14032;52.510;7.342;2023-07-08T05:56:25;19.40;99.90
26326;DHT22;14032;52.510;7.342;2023-07-08T05:58:50;19.50;99.90
26326;DHT22;14032;52.510;7.342;2023-07-08T06:01:22;19.60;99.90
26326;DHT22;14032;52.510;7.342;2023-07-08T06:03:47;19.80;99.90
26326;DHT22;14032;52.510;7.342;2023-07-08T06:06:16;19.90;99.90
26326;DHT22;14032;52.510;7.342;2023-07-08T06:08:42;20.00;99.90
26326;DHT22;14032;52.510;7.342;2023-07-08T06:11:08;20.10;99.90
26326;DHT22;14032;52.510;7.342;2023-07-08T06:13:33;20.30;99.90
26326;DHT22;14032;52.510;7.342;2023-07-08T06:15:59;20.40;99.90
26326;DHT22;14032;52.510;7.342;2023-07-08T06:18:24;20.60;99.90
26326;DHT22;14032;52.510;7.342;2023-07-08T06:20:56;20.60;99.90
26326;DHT22;14032;52.510;7.342;2023-07-08T06:23:25;20.80;99.90
26326;DHT22;14032;52.510;7.342;2023-07-08T06:25:52;20.90;99.90
26326;DHT22;14032;52.510;7.342;2023-07-08T06:28:20;21.00;99.90
26326;DHT22;14032;52.510;7.342;2023-07-08T06:30:47;21.10;99.90
26326;DHT22;14032;52.510;7.342;2023-07-08T06:33:13;21.20;99.90
26326;DHT22;14032;52.510;7.342;2023-07-08T06:35:39;21.40;99.90
26326;DHT22;14032;52.510;7.342;2023-07-08T06:38:05;21.60;99.90
26326;DHT22;14032;52.510;7.342;2023-07-08T06:40:34;21.70;99.90
26326;DHT22;14032;52.510;7.342;2023-07-08T06:43:02;21.90;99.90
26326;DHT22;14032;52.510;7.342;2023-07-08T06:45:27;22.00;99.90
26326;DHT22;14032;52.510;7.342;2023-07-08T06:47:53;22.20;99.90
26326;DHT22;14032;52.510;7.342;2023-07-08T06:50:22;22.30;99.90
26326;DHT22;14032;52.510;7.342;2023-07-08T06:52:47;22.40;99.90
26326;DHT22;14032;52.510;7.342;2023-07-08T06:55:13;22.60;99.90
26326;DHT22;14032;52.510;7.342;2023-07-08T06:57:39;22.70;99.90
26326;DHT22;14032;52.510;7.342;2023-07-08T07:00:12;22.80;99.90
26326;DHT22;14032;52.510;7.342;2023-07-08T07:02:43;23.00;99.90
26326;DHT22;14032;52.510;7.342;2023-07-08T07:05:09;23.20;99.90
26326;DHT22;14032;52.510;7.342;2023-07-08T07:07:35;23.30;99.90
26326;DHT22;14032;52.510;7.342;2023-07-08T07:10:00;23.40;99.90
26326;DHT22;14032;52.510;7.342;2023-07-08T07:12:26;23.60;99.90
26326;DHT22;14032;52.510;7.342;2023-07-08T07:14:58;23.80;99.90
26326;DHT22;14032;52.510;7.342;2023-07-08T07:17:24;23.90;99.90
26326;DHT22;14032;52.510;7.342;2023-07-08T07:19:50;23.90;99.90
26326;DHT22;14032;52.510;7.342;2023-07-08T07:22:16;24.10;99.90
26326;DHT22;14032;52.510;7.342;2023-07-08T07:24:42;24.30;99.80
26326;DHT22;14032;52.510;7.342;2023-07-08T07:27:08;24.40;99.80
26326;DHT22;14032;52.510;7.342;2023-07-08T07:30:00;24.50;99.70
26326;DHT22;14032;52.510;7.342;2023-07-08T07:32:26;24.80;99.60
26326;DHT22;14032;52.510;7.342;2023-07-08T07:34:53;24.90;98.90
26326;DHT22;14032;52.510;7.342;2023-07-08T07:37:20;25.00;98.20
26326;DHT22;14032;52.510;7.342;2023-07-08T07:39:46;24.90;97.40
26326;DHT22;14032;52.510;7.342;2023-07-08T07:44:47;25.10;97.60
26326;DHT22;14032;52.510;7.342;2023-07-08T07:47:13;25.20;97.50
26326;DHT22;14032;52.510;7.342;2023-07-08T07:49:39;25.30;96.60
26326;DHT22;14032;52.510;7.342;2023-07-08T07:52:05;25.40;96.40
26326;DHT22;14032;52.510;7.342;2023-07-08T07:54:31;25.50;96.10
26326;DHT22;14032;52.510;7.342;2023-07-08T07:57:00;25.50;95.70
26326;DHT22;14032;52.510;7.342;2023-07-08T07:59:29;25.60;95.50
26326;DHT22;14032;52.510;7.342;2023-07-08T08:01:54;25.60;95.30
26326;DHT22;14032;52.510;7.342;2023-07-08T08:04:20;25.80;96.10
26326;DHT22;14032;52.510;7.342;2023-07-08T08:06:46;25.90;95.70
26326;DHT22;14032;52.510;7.342;2023-07-08T08:09:12;26.00;95.20
26326;DHT22;14032;52.510;7.342;2023-07-08T08:11:44;26.10;95.50
26326;DHT22;14032;52.510;7.342;2023-07-08T08:14:14;26.30;95.30
26326;DHT22;14032;52.510;7.342;2023-07-08T08:16:40;26.40;94.70
26326;DHT22;14032;52.510;7.342;2023-07-08T08:19:05;26.60;94.70
26326;DHT22;14032;52.510;7.342;2023-07-08T08:21:32;26.70;94.00
26326;DHT22;14032;52.510;7.342;2023-07-08T08:23:58;26.60;93.40
26326;DHT22;14032;52.510;7.342;2023-07-08T08:26:25;26.60;93.60
26326;DHT22;14032;52.510;7.342;2023-07-08T08:28:57;26.80;93.50
26326;DHT22;14032;52.510;7.342;2023-07-08T08:31:23;26.90;93.60
26326;DHT22;14032;52.510;7.342;2023-07-08T08:33:50;27.00;93.40
26326;DHT22;14032;52.510;7.342;2023-07-08T08:36:16;27.10;92.70
26326;DHT22;14032;52.510;7.342;2023-07-08T08:38:41;27.00;92.40
26326;DHT22;14032;52.510;7.342;2023-07-08T08:41:15;27.20;92.90
26326;DHT22;14032;52.510;7.342;2023-07-08T08:43:42;27.30;92.80
26326;DHT22;14032;52.510;7.342;2023-07-08T08:46:16;27.30;92.60
26326;DHT22;14032;52.510;7.342;2023-07-08T08:49:37;27.50;92.70
26326;DHT22;14032;52.510;7.342;2023-07-08T08:51:37;27.60;92.40
26326;DHT22;14032;52.510;7.342;2023-07-08T08:54:03;27.70;92.20
26326;DHT22;14032;52.510;7.342;2023-07-08T08:56:34;27.80;91.70
26326;DHT22;14032;52.510;7.342;2023-07-08T09:01:56;27.90;91.40
26326;DHT22;14032;52.510;7.342;2023-07-08T09:04:29;28.10;91.60
26326;DHT22;14032;52.510;7.342;2023-07-08T09:07:08;28.10;91.10
26326;DHT22;14032;52.510;7.342;2023-07-08T09:09:44;28.20;90.90
26326;DHT22;14032;52.510;7.342;2023-07-08T09:12:18;28.30;91.00
26326;DHT22;14032;52.510;7.342;2023-07-08T09:14:46;28.40;91.00
26326;DHT22;14032;52.510;7.342;2023-07-08T09:17:32;28.50;90.90
26326;DHT22;14032;52.510;7.342;2023-07-08T09:20:23;28.60;90.70
26326;DHT22;14032;52.510;7.342;2023-07-08T09:23:19;28.50;90.60
26326;DHT22;14032;52.510;7.342;2023-07-08T09:28:19;28.60;90.30
26326;DHT22;14032;52.510;7.342;2023-07-08T09:30:48;28.70;90.00
26326;DHT22;14032;52.510;7.342;2023-07-08T09:33:17;28.80;90.00
26326;DHT22;14032;52.510;7.342;2023-07-08T09:35:47;28.80;90.10
26326;DHT22;14032;52.510;7.342;2023-07-08T09:38:16;28.80;89.00
26326;DHT22;14032;52.510;7.342;2023-07-08T09:40:47;28.80;88.40
26326;DHT22;14032;52.510;7.342;2023-07-08T09:43:32;28.80;89.50
26326;DHT22;14032;52.510;7.342;2023-07-08T09:46:05;28.90;88.70
26326;DHT22;14032;52.510;7.342;2023-07-08T09:48:35;28.80;87.40
26326;DHT22;14032;52.510;7.342;2023-07-08T09:51:01;28.80;87.50
26326;DHT22;14032;52.510;7.342;2023-07-08T09:53:28;28.80;87.60
26326;DHT22;14032;52.510;7.342;2023-07-08T09:55:56;28.90;88.00
26326;DHT22;14032;52.510;7.342;2023-07-08T09:58:34;29.10;88.70
26326;DHT22;14032;52.510;7.342;2023-07-08T10:01:13;29.30;88.40
26326;DHT22;14032;52.510;7.342;2023-07-08T10:03:42;29.50;87.50
26326;DHT22;14032;52.510;7.342;2023-07-08T10:06:22;29.60;87.10
26326;DHT22;14032;52.510;7.342;2023-07-08T10:08:47;29.70;85.70
26326;DHT22;14032;52.510;7.342;2023-07-08T10:13:50;29.80;84.30
26326;DHT22;14032;52.510;7.342;2023-07-08T10:16:32;29.80;85.30
26326;DHT22;14032;52.510;7.342;2023-07-08T10:18:59;29.90;85.70
26326;DHT22;14032;52.510;7.342;2023-07-08T10:31:21;30.00;84.10
26326;DHT22;14032;52.510;7.342;2023-07-08T10:33:58;30.10;84.60
26326;DHT22;14032;52.510;7.342;2023-07-08T10:45:12;30.40;84.00
26326;DHT22;14032;52.510;7.342;2023-07-08T10:51:20;30.50;83.90
26326;DHT22;14032;52.510;7.342;2023-07-08T10:54:10;30.80;81.70
26326;DHT22;14032;52.510;7.342;2023-07-08T10:57:05;30.90;80.80
26326;DHT22;14032;52.510;7.342;2023-07-08T11:03:05;31.00;78.80
26326;DHT22;14032;52.510;7.342;2023-07-08T11:11:03;31.30;79.60
26326;DHT22;14032;52.510;7.342;2023-07-08T11:13:38;31.40;78.00
26326;DHT22;14032;52.510;7.342;2023-07-08T11:16:30;31.50;79.40
26326;DHT22;14032;52.510;7.342;2023-07-08T11:19:21;31.60;77.80
26326;DHT22;14032;52.510;7.342;2023-07-08T11:21:54;31.60;77.40
26326;DHT22;14032;52.510;7.342;2023-07-08T11:24:28;31.60;78.50
26326;DHT22;14032;52.510;7.342;2023-07-08T11:27:00;31.60;78.00
26326;DHT22;14032;52.510;7.342;2023-07-08T11:29:37;31.70;78.70
26326;DHT22;14032;52.510;7.342;2023-07-08T11:32:05;31.70;78.20
26326;DHT22;14032;52.510;7.342;2023-07-08T11:34:37;31.80;79.10
26326;DHT22;14032;52.510;7.342;2023-07-08T11:37:04;31.70;78.00
26326;DHT22;14032;52.510;7.342;2023-07-08T11:39:44;31.70;78.20
26326;DHT22;14032;52.510;7.342;2023-07-08T11:44:43;31.80;77.20
26326;DHT22;14032;52.510;7.342;2023-07-08T11:47:19;31.80;76.90
26326;DHT22;14032;52.510;7.342;2023-07-08T11:49:47;31.70;76.60
26326;DHT22;14032;52.510;7.342;2023-07-08T11:52:17;31.90;76.70
26326;DHT22;14032;52.510;7.342;2023-07-08T11:54:46;31.90;76.50
26326;DHT22;14032;52.510;7.342;2023-07-08T11:57:18;32.00;75.20
26326;DHT22;14032;52.510;7.342;2023-07-08T11:59:46;32.00;76.40
26326;DHT22;14032;52.510;7.342;2023-07-08T12:02:19;32.00;75.80
26326;DHT22;14032;52.510;7.342;2023-07-08T12:05:11;32.00;74.10
26326;DHT22;14032;52.510;7.342;2023-07-08T12:07:41;31.90;73.40
26326;DHT22;14032;52.510;7.342;2023-07-08T12:10:18;31.80;74.40
26326;DHT22;14032;52.510;7.342;2023-07-08T12:12:48;31.90;73.00
26326;DHT22;14032;52.510;7.342;2023-07-08T12:15:32;31.90;69.90
26326;DHT22;14032;52.510;7.342;2023-07-08T12:18:22;31.80;71.50
26326;DHT22;14032;52.510;7.342;2023-07-08T12:20:51;31.90;71.50
26326;DHT22;14032;52.510;7.342;2023-07-08T12:23:22;31.80;70.60
26326;DHT22;14032;52.510;7.342;2023-07-08T12:25:48;31.80;70.90
26326;DHT22;14032;52.510;7.342;2023-07-08T12:28:15;31.70;72.00
26326;DHT22;14032;52.510;7.342;2023-07-08T12:30:42;31.70;72.00
26326;DHT22;14032;52.510;7.342;2023-07-08T12:33:19;31.60;73.40
26326;DHT22;14032;52.510;7.342;2023-07-08T12:35:47;31.50;71.20
26326;DHT22;14032;52.510;7.342;2023-07-08T12:40:43;31.50;66.90
26326;DHT22;14032;52.510;7.342;2023-07-08T12:43:16;31.50;68.30
26326;DHT22;14032;52.510;7.342;2023-07-08T12:45:43;31.30;67.30
26326;DHT22;14032;52.510;7.342;2023-07-08T12:48:09;31.30;67.60
26326;DHT22;14032;52.510;7.342;2023-07-08T12:50:39;31.30;68.70
26326;DHT22;14032;52.510;7.342;2023-07-08T12:53:05;31.30;68.10
26326;DHT22;14032;52.510;7.342;2023-07-08T12:55:39;31.20;68.20
26326;DHT22;14032;52.510;7.342;2023-07-08T12:58:09;31.20;70.00
26326;DHT22;14032;52.510;7.342;2023-07-08T13:00:44;31.30;68.20
26326;DHT22;14032;52.510;7.342;2023-07-08T13:03:19;31.30;67.50
26326;DHT22;14032;52.510;7.342;2023-07-08T13:05:50;31.30;68.80
26326;DHT22;14032;52.510;7.342;2023-07-08T13:08:19;31.30;67.40
26326;DHT22;14032;52.510;7.342;2023-07-08T13:10:46;31.30;67.30
26326;DHT22;14032;52.510;7.342;2023-07-08T13:13:37;31.20;67.90
26326;DHT22;14032;52.510;7.342;2023-07-08T13:16:04;31.20;68.00
26326;DHT22;14032;52.510;7.342;2023-07-08T13:18:38;31.20;68.90
26326;DHT22;14032;52.510;7.342;2023-07-08T13:23:42;31.20;68.00
26326;DHT22;14032;52.510;7.342;2023-07-08T13:26:16;31.20;66.80
26326;DHT22;14032;52.510;7.342;2023-07-08T13:31:23;31.20;66.00
26326;DHT22;14032;52.510;7.342;2023-07-08T13:36:34;31.30;66.10
26326;DHT22;14032;52.510;7.342;2023-07-08T13:39:05;31.30;65.60
26326;DHT22;14032;52.510;7.342;2023-07-08T13:44:06;31.20;66.80
26326;DHT22;14032;52.510;7.342;2023-07-08T13:49:26;31.00;64.30
26326;DHT22;14032;52.510;7.342;2023-07-08T13:54:52;31.00;61.20
26326;DHT22;14032;52.510;7.342;2023-07-08T14:02:31;31.20;61.70
26326;DHT22;14032;52.510;7.342;2023-07-08T14:04:58;31.20;62.10
26326;DHT22;14032;52.510;7.342;2023-07-08T14:07:31;31.20;62.00
26326;DHT22;14032;52.510;7.342;2023-07-08T14:09:56;31.30;61.60
26326;DHT22;14032;52.510;7.342;2023-07-08T14:12:22;31.30;62.30
26326;DHT22;14032;52.510;7.342;2023-07-08T14:14:48;31.30;62.20
26326;DHT22;14032;52.510;7.342;2023-07-08T14:17:23;31.40;61.30
26326;DHT22;14032;52.510;7.342;2023-07-08T14:19:51;31.40;61.10
26326;DHT22;14032;52.510;7.342;2023-07-08T14:24:48;31.20;59.90
26326;DHT22;14032;52.510;7.342;2023-07-08T14:27:13;31.20;60.80
26326;DHT22;14032;52.510;7.342;2023-07-08T14:29:51;31.20;59.80
26326;DHT22;14032;52.510;7.342;2023-07-08T14:32:43;31.20;60.20
26326;DHT22;14032;52.510;7.342;2023-07-08T14:35:28;31.20;61.10
26326;DHT22;14032;52.510;7.342;2023-07-08T14:37:54;31.10;61.30
26326;DHT22;14032;52.510;7.342;2023-07-08T14:40:33;31.20;61.00
26326;DHT22;14032;52.510;7.342;2023-07-08T14:43:06;31.20;61.30
26326;DHT22;14032;52.510;7.342;2023-07-08T14:45:38;31.20;61.30
26326;DHT22;14032;52.510;7.342;2023-07-08T14:48:09;31.20;61.50
26326;DHT22;14032;52.510;7.342;2023-07-08T14:50:35;31.20;61.70
26326;DHT22;14032;52.510;7.342;2023-07-08T14:53:04;31.20;60.90
26326;DHT22;14032;52.510;7.342;2023-07-08T14:55:30;31.20;60.90
26326;DHT22;14032;52.510;7.342;2023-07-08T14:57:56;31.30;60.50
26326;DHT22;14032;52.510;7.342;2023-07-08T15:00:23;31.30;60.80
26326;DHT22;14032;52.510;7.342;2023-07-08T15:02:52;31.30;61.60
26326;DHT22;14032;52.510;7.342;2023-07-08T15:05:24;31.30;61.70
26326;DHT22;14032;52.510;7.342;2023-07-08T15:07:56;31.30;61.10
26326;DHT22;14032;52.510;7.342;2023-07-08T15:10:28;31.30;61.00
26326;DHT22;14032;52.510;7.342;2023-07-08T15:12:54;31.30;59.20
26326;DHT22;14032;52.510;7.342;2023-07-08T15:15:27;31.20;59.30
26326;DHT22;14032;52.510;7.342;2023-07-08T15:17:53;31.20;61.10
26326;DHT22;14032;52.510;7.342;2023-07-08T15:20:22;31.20;61.30
26326;DHT22;14032;52.510;7.342;2023-07-08T15:22:51;31.30;60.50
26326;DHT22;14032;52.510;7.342;2023-07-08T15:25:17;31.30;60.40
26326;DHT22;14032;52.510;7.342;2023-07-08T15:27:47;31.30;60.60
26326;DHT22;14032;52.510;7.342;2023-07-08T15:30:25;31.30;60.60
26326;DHT22;14032;52.510;7.342;2023-07-08T15:32:52;31.30;58.60
26326;DHT22;14032;52.510;7.342;2023-07-08T15:35:20;31.30;58.20
26326;DHT22;14032;52.510;7.342;2023-07-08T15:37:47;31.20;59.40
26326;DHT22;14032;52.510;7.342;2023-07-08T15:40:17;31.20;58.60
26326;DHT22;14032;52.510;7.342;2023-07-08T15:42:45;31.20;58.80
26326;DHT22;14032;52.510;7.342;2023-07-08T15:45:26;31.20;60.80
26326;DHT22;14032;52.510;7.342;2023-07-08T15:47:53;31.20;60.50
26326;DHT22;14032;52.510;7.342;2023-07-08T15:50:22;31.20;60.70
26326;DHT22;14032;52.510;7.342;2023-07-08T15:52:49;31.20;61.00
26326;DHT22;14032;52.510;7.342;2023-07-08T15:55:20;31.20;61.00
26326;DHT22;14032;52.510;7.342;2023-07-08T15:57:55;31.20;61.50
26326;DHT22;14032;52.510;7.342;2023-07-08T16:00:24;31.30;59.60
26326;DHT22;14032;52.510;7.342;2023-07-08T16:02:58;31.30;58.10
26326;DHT22;14032;52.510;7.342;2023-07-08T16:05:27;31.30;59.10
26326;DHT22;14032;52.510;7.342;2023-07-08T16:07:54;31.30;59.60
26326;DHT22;14032;52.510;7.342;2023-07-08T16:10:21;31.30;58.60
26326;DHT22;14032;52.510;7.342;2023-07-08T16:12:50;31.30;60.10
26326;DHT22;14032;52.510;7.342;2023-07-08T16:15:28;31.20;60.60
26326;DHT22;14032;52.510;7.342;2023-07-08T16:17:55;31.30;60.30
26326;DHT22;14032;52.510;7.342;2023-07-08T16:20:22;31.20;61.30
26326;DHT22;14032;52.510;7.342;2023-07-08T16:22:51;31.30;60.60
26326;DHT22;14032;52.510;7.342;2023-07-08T16:25:27;31.30;60.70
26326;DHT22;14032;52.510;7.342;2023-07-08T16:27:53;31.30;60.60
26326;DHT22;14032;52.510;7.342;2023-07-08T16:30:21;31.30;60.30
26326;DHT22;14032;52.510;7.342;2023-07-08T16:32:47;31.30;60.40
26326;DHT22;14032;52.510;7.342;2023-07-08T16:35:16;31.30;60.10
26326;DHT22;14032;52.510;7.342;2023-07-08T16:38:00;31.30;60.30
26326;DHT22;14032;52.510;7.342;2023-07-08T16:40:29;31.20;61.50
26326;DHT22;14032;52.510;7.342;2023-07-08T16:42:56;31.20;60.80
26326;DHT22;14032;52.510;7.342;2023-07-08T16:45:23;31.10;60.40
26326;DHT22;14032;52.510;7.342;2023-07-08T16:47:50;31.00;61.10
26326;DHT22;14032;52.510;7.342;2023-07-08T16:50:23;31.00;61.00
26326;DHT22;14032;52.510;7.342;2023-07-08T16:52:50;30.90;61.20
26326;DHT22;14032;52.510;7.342;2023-07-08T16:55:17;30.80;61.10
26326;DHT22;14032;52.510;7.342;2023-07-08T16:57:44;30.70;61.60
26326;DHT22;14032;52.510;7.342;2023-07-08T17:00:18;30.60;61.80
26326;DHT22;14032;52.510;7.342;2023-07-08T17:02:47;30.60;62.40
26326;DHT22;14032;52.510;7.342;2023-07-08T17:05:23;30.60;62.40
26326;DHT22;14032;52.510;7.342;2023-07-08T17:07:49;30.50;62.50
26326;DHT22;14032;52.510;7.342;2023-07-08T17:10:16;30.50;63.50